Fate, Texas
Current Conditions -  °F | °C
As of 7:15 AM on Saturday 25 Oct 2014 (Local Time) from KF46 Reporting Station
Clear Clear  
Wind Chill: 62°   Ceiling: Unl
Heat Index: 62°   Visibility: 10mi
Dew Point: 58°   Wind: 8mph
Humidity: 88%   Direction: 170°S
Pressure: 30.12"   Gusts: NA
Location:  32.94°N, 96.38°W
Report Text: KF46 251215Z AUTO 17007KT 130V190 10SM CLR 17/15 A3012 RMK AO2 T01660146
Loading
Personal Weather Stations






























Interactive Weather Map
Tropical Storm Tracking
New forecast layout! Learn more

10-Day Weather Forecast

Advertisements
Track Severe Weather on mobile